Time;durP1;ratioP1;P1;durP2;ratioP2;P2;SDS_P1;SDS_P2;PMS_P1;PMS_P2;Temp;Humidity;BMP_temperature;BMP_pressure;BME280_temperature;BME280_humidity;BME280_pressure;Samples;Min_cycle;Max_cycle;Signal;HPM_P1;HPM_P2
2022/08/13 00:00:34;;;;;;;2.20;0.90;;;17.30;75.90;;;17.05;55.99;97204.91;5020172;28;20037;-48
2022/08/13 00:03:01;;;;;;;1.00;0.80;;;17.20;76.60;;;17.11;56.88;97227.63;5024354;28;20021;-49
2022/08/13 00:05:27;;;;;;;1.30;1.10;;;17.20;77.30;;;17.04;57.98;97226.31;5026803;28;20030;-49
2022/08/13 00:07:53;;;;;;;2.75;1.05;;;17.10;78.00;;;16.97;58.06;97218.69;5027431;28;20091;-47
2022/08/13 00:10:29;;;;;;;1.20;1.00;;;17.10;78.10;;;16.94;57.91;97213.59;5028215;28;20052;-50
2022/08/13 00:12:58;;;;;;;1.10;0.98;;;17.00;78.00;;;16.93;58.27;97211.03;5027373;28;20079;-46
2022/08/13 00:15:37;;;;;;;2.25;1.23;;;17.00;78.40;;;16.86;58.01;97210.56;5028415;28;20029;-48
2022/08/13 00:18:16;;;;;;;1.60;1.30;;;17.00;78.30;;;16.74;58.17;97203.34;5011077;28;20392;-45
2022/08/13 00:20:48;;;;;;;1.20;1.00;;;16.90;78.30;;;16.86;58.96;97218.56;5028276;28;20026;-49
2022/08/13 00:23:16;;;;;;;1.60;1.20;;;16.90;78.90;;;16.83;59.42;97217.88;5027100;28;20036;-47
2022/08/13 00:25:44;;;;;;;1.98;1.10;;;16.90;79.20;;;16.77;59.88;97214.66;5027175;28;20105;-49
2022/08/13 00:28:15;;;;;;;1.27;1.17;;;16.80;79.60;;;16.74;60.31;97208.66;5024950;28;20030;-49
2022/08/13 00:30:41;;;;;;;1.98;1.13;;;16.80;80.00;;;16.68;60.70;97209.94;5026938;28;20065;-48
2022/08/13 00:33:12;;;;;;;1.50;1.30;;;16.70;80.40;;;16.67;61.13;97202.91;5027057;28;20310;-47
2022/08/13 00:35:41;;;;;;;3.08;1.33;;;16.70;80.60;;;16.65;61.23;97196.81;5022800;28;20026;-49
2022/08/13 00:38:16;;;;;;;1.63;1.25;;;16.70;80.70;;;16.58;61.19;97185.72;5025744;28;20457;-46
2022/08/13 00:40:58;;;;;;;1.35;1.20;;;16.70;80.80;;;16.63;60.93;97195.22;5024396;28;20040;-47
2022/08/13 00:43:26;;;;;;;1.65;1.25;;;16.70;80.60;;;16.61;61.43;97196.16;5025942;28;20037;-47
2022/08/13 00:45:54;;;;;;;1.13;1.00;;;16.70;81.00;;;16.60;61.36;97197.13;5026224;28;20409;-46
2022/08/13 00:51:08;;;;;;;2.75;1.10;;;16.60;80.90;;;16.51;60.77;97180.88;5026069;28;20091;-50
2022/08/13 00:53:40;;;;;;;1.40;1.20;;;16.60;80.40;;;16.53;61.34;97184.31;5025466;28;20040;-47
2022/08/13 00:56:10;;;;;;;1.87;1.07;;;16.60;80.90;;;16.47;62.34;97188.19;5025731;28;20032;-47
2022/08/13 00:58:37;;;;;;;1.50;1.13;;;16.50;81.50;;;16.41;62.69;97186.78;5026416;28;20140;-47
2022/08/13 01:01:05;;;;;;;1.27;1.10;;;16.50;82.00;;;16.37;63.28;97182.63;5024641;28;21179;-46
2022/08/13 01:03:35;;;;;;;1.63;1.27;;;16.50;82.30;;;16.32;63.74;97182.06;5024196;28;20428;-47
2022/08/13 01:06:02;;;;;;;2.55;1.33;;;16.40;82.60;;;16.32;64.14;97181.22;5025508;28;20168;-48
2022/08/13 01:08:31;;;;;;;1.83;1.10;;;16.40;82.90;;;16.32;64.13;97170.56;5009195;28;20545;-49
2022/08/13 01:11:13;;;;;;;2.72;1.30;;;16.40;83.00;;;16.34;64.25;97179.31;5024753;28;20340;-47
2022/08/13 01:13:42;;;;;;;1.75;1.10;;;16.50;83.00;;;16.35;64.23;97179.22;5026041;28;20033;-48
2022/08/13 01:16:14;;;;;;;1.67;1.10;;;16.50;83.00;;;16.34;64.81;97185.47;5024928;28;20052;-47
2022/08/13 01:18:44;;;;;;;3.50;1.38;;;16.40;83.30;;;16.30;65.40;97183.97;5026359;28;20314;-48
2022/08/13 01:21:15;;;;;;;1.98;1.40;;;16.40;83.70;;;16.27;65.90;97183.31;5025611;28;20033;-50
2022/08/13 01:23:45;;;;;;;2.08;1.35;;;16.40;84.10;;;16.22;65.85;97188.91;5026833;28;20056;-46
2022/08/13 01:26:12;;;;;;;1.33;1.00;;;16.30;84.10;;;16.19;65.93;97181.13;5024484;28;20034;-49
2022/08/13 01:28:39;;;;;;;2.45;1.27;;;16.30;84.40;;;16.14;66.19;97178.75;5026245;28;20497;-49
2022/08/13 01:31:06;;;;;;;1.90;1.40;;;16.30;84.50;;;16.10;66.02;97185.22;5026461;28;20394;-48
2022/08/13 01:33:35;;;;;;;1.55;1.20;;;16.20;84.50;;;16.05;66.27;97181.16;5026767;28;20044;-47
2022/08/13 01:36:06;;;;;;;1.42;1.30;;;16.10;84.60;;;15.85;66.69;97159.31;5024883;28;20503;-49
2022/08/13 01:38:36;;;;;;;1.48;1.13;;;16.10;85.00;;;15.94;66.82;97187.13;5040423;22;21379;-49
2022/08/13 01:41:04;;;;;;;2.60;1.02;;;16.10;85.20;;;15.89;67.01;97191.88;4997578;28;20446;-49
2022/08/13 01:43:31;;;;;;;1.20;1.02;;;16.00;85.20;;;15.80;67.10;97182.66;5013025;28;20040;-49
2022/08/13 01:46:01;;;;;;;2.72;1.30;;;15.90;85.40;;;15.81;67.08;97184.38;5014404;28;20040;-50
2022/08/13 01:51:23;;;;;;;1.75;1.20;;;15.90;85.50;;;15.75;67.32;97182.94;5011705;28;20049;-49
2022/08/13 01:53:58;;;;;;;0.90;0.80;;;15.80;85.60;;;15.65;68.01;97168.47;5012739;28;20025;-48
2022/08/13 01:56:24;;;;;;;2.55;1.00;;;15.80;86.10;;;15.63;68.55;97179.19;5013036;28;20168;-48
2022/08/13 01:58:53;;;;;;;1.50;1.35;;;15.70;86.50;;;15.57;69.04;97187.53;5013649;28;20044;-47
2022/08/13 02:01:24;;;;;;;1.65;1.10;;;15.70;87.00;;;15.52;69.49;97183.44;5015054;28;20416;-49
2022/08/13 02:03:49;;;;;;;1.85;1.30;;;15.60;87.20;;;15.45;69.66;97183.84;5013007;28;20167;-48
2022/08/13 02:06:25;;;;;;;1.10;1.00;;;15.50;87.40;;;15.42;70.05;97188.47;5015485;28;20069;-48
2022/08/13 02:08:59;;;;;;;4.03;1.30;;;15.50;87.80;;;15.38;70.45;97179.84;5014451;28;20045;-48
2022/08/13 02:11:32;;;;;;;1.52;1.10;;;15.50;88.10;;;15.35;70.72;97179.16;5015024;28;20515;-48
2022/08/13 02:14:02;;;;;;;3.53;1.25;;;15.40;88.40;;;15.32;70.38;97176.69;5012205;28;20032;-49
2022/08/13 02:16:33;;;;;;;1.52;1.20;;;15.40;88.30;;;15.33;70.43;97175.75;5013583;28;20029;-48
2022/08/13 02:19:04;;;;;;;1.50;1.17;;;15.40;88.30;;;15.34;70.29;97178.28;5015062;28;20057;-48
2022/08/13 02:21:36;;;;;;;1.10;1.00;;;15.40;88.40;;;15.35;70.38;97181.81;5015573;28;20443;-47
2022/08/13 02:24:08;;;;;;;1.65;1.30;;;15.40;88.40;;;15.35;70.51;97185.31;5012755;28;20056;-49
2022/08/13 02:26:34;;;;;;;1.90;1.23;;;15.40;88.50;;;15.35;70.85;97177.34;4996942;28;20497;-51
2022/08/13 02:29:04;;;;;;;2.10;1.33;;;15.40;88.80;;;15.33;71.37;97179.25;5014706;28;20497;-49
2022/08/13 02:31:30;;;;;;;1.85;1.42;;;15.40;89.10;;;15.26;71.35;97168.13;5015665;28;20041;-51
2022/08/13 02:33:57;;;;;;;3.70;1.33;;;15.40;89.10;;;15.30;71.43;97179.41;5014562;28;20049;-48
2022/08/13 02:36:23;;;;;;;1.85;1.30;;;15.40;90.00;;;15.30;71.48;97184.72;5015873;28;20378;-51
2022/08/13 02:39:01;;;;;;;1.60;1.50;;;15.40;89.30;;;15.31;71.31;97182.91;5014930;28;20038;-49
2022/08/13 02:41:43;;;;;;;1.90;1.40;;;15.40;89.20;;;15.30;71.31;97184.72;4996805;28;20029;-47
2022/08/13 02:44:15;;;;;;;2.05;1.35;;;15.40;89.40;;;15.27;71.28;97188.44;5014763;28;20064;-47
2022/08/13 02:46:49;;;;;;;2.15;1.35;;;15.30;89.30;;;15.27;71.63;97190.22;5011700;28;20069;-52
2022/08/13 02:49:17;;;;;;;1.50;1.30;;;15.40;89.50;;;15.26;71.84;97180.56;5011459;28;20221;-51
2022/08/13 02:51:43;;;;;;;2.90;1.40;;;15.40;89.70;;;15.24;71.90;97185.94;5011320;28;20029;-50
2022/08/13 02:54:09;;;;;;;2.38;1.38;;;15.30;89.70;;;15.21;72.05;97179.97;5014514;28;20083;-47
2022/08/13 02:56:36;;;;;;;1.92;1.38;;;15.40;89.80;;;15.18;72.38;97181.03;5014637;28;20034;-51
2022/08/13 02:59:06;;;;;;;1.98;1.20;;;15.30;90.00;;;15.12;73.13;97178.72;5013046;28;20021;-48
2022/08/13 03:01:34;;;;;;;2.38;1.40;;;15.30;90.30;;;15.03;73.77;97179.25;5014246;28;20018;-50
2022/08/13 03:03:59;;;;;;;2.65;1.20;;;15.20;90.50;;;15.02;73.83;97186.38;5012376;28;20030;-50
2022/08/13 03:06:25;;;;;;;4.10;1.55;;;15.10;90.60;;;14.99;74.31;97183.03;5015347;28;20102;-49
2022/08/13 03:08:52;;;;;;;2.55;1.52;;;15.10;90.70;;;14.95;74.56;97186.78;5014080;28;20037;-48
2022/08/13 03:11:21;;;;;;;1.63;1.30;;;15.10;90.80;;;14.91;74.50;97193.22;4997472;28;20058;-48
2022/08/13 03:14:12;;;;;;;1.55;1.40;;;15.00;90.80;;;14.88;74.87;97191.63;5012543;28;20049;-50
2022/08/13 03:16:39;;;;;;;2.85;1.38;;;15.00;90.90;;;14.85;75.31;97191.78;4995963;28;20133;-48
2022/08/13 03:19:06;;;;;;;2.20;1.70;;;15.00;91.10;;;14.80;75.58;97188.53;5014102;28;20421;-48
2022/08/13 03:21:42;;;;;;;1.52;1.30;;;14.90;91.20;;;14.76;76.60;97192.31;5010278;28;20025;-49
2022/08/13 03:24:15;;;;;;;2.88;1.38;;;14.90;91.60;;;14.72;77.47;97191.66;5014973;28;20022;-48
2022/08/13 03:26:41;;;;;;;;;;;14.90;91.80;;;14.67;78.25;97191.88;4995862;28;20029;-49
2022/08/13 03:29:08;;;;;;;1.88;1.27;;;14.90;92.00;;;14.64;78.91;97185.91;5014932;28;19912;-48
2022/08/13 03:31:37;;;;;;;2.28;1.60;;;14.80;92.30;;;14.58;78.92;97194.22;5012145;28;20409;-52
2022/08/13 03:34:04;;;;;;;2.65;1.20;;;14.80;92.30;;;14.54;79.14;97188.19;5011735;28;20025;-49
2022/08/13 03:36:31;;;;;;;2.00;1.33;;;14.70;92.30;;;14.44;79.24;97185.19;5011775;28;20068;-48
2022/08/13 03:38:58;;;;;;;2.05;1.40;;;14.70;92.40;;;14.42;78.98;97188.88;5013436;28;20029;-50
2022/08/13 03:41:24;;;;;;;1.48;1.20;;;14.60;92.40;;;14.38;79.36;97180.25;5014540;28;20485;-50
2022/08/13 03:43:51;;;;;;;1.85;1.50;;;14.50;92.50;;;14.37;79.98;97190.94;5012432;28;20078;-49
2022/08/13 03:46:22;;;;;;;2.85;1.45;;;14.50;92.80;;;14.31;80.00;97192.97;5011823;28;20025;-48
2022/08/13 03:48:49;;;;;;;1.42;1.23;;;14.50;92.90;;;14.28;80.19;97193.16;5010017;28;20033;-48
2022/08/13 03:51:17;;;;;;;1.98;1.58;;;14.40;93.00;;;14.23;80.26;97189.91;5009952;28;20033;-47
2022/08/13 03:53:44;;;;;;;3.42;1.38;;;14.40;93.10;;;14.21;80.47;97183.84;5012808;28;20025;-49
2022/08/13 03:56:13;;;;;;;1.73;1.30;;;14.40;93.20;;;14.20;80.73;97189.22;5011397;28;20630;-49
2022/08/13 03:58:39;;;;;;;2.08;1.40;;;14.40;93.20;;;14.14;80.84;97179.81;5012308;28;20451;-49
2022/08/13 04:01:05;;;;;;;1.83;1.55;;;14.30;93.30;;;14.10;81.22;97179.13;5008331;28;20038;-49
2022/08/13 04:03:37;;;;;;;2.17;1.48;;;14.30;93.40;;;14.12;80.92;97173.72;5013911;28;20018;-50
2022/08/13 04:06:16;;;;;;;1.80;1.50;;;14.30;93.40;;;14.12;80.94;97179.00;5010075;28;20108;-48
2022/08/13 04:08:44;;;;;;;1.30;1.20;;;14.30;93.40;;;14.07;81.61;97179.28;4997724;28;20083;-48
2022/08/13 04:11:14;;;;;;;1.80;1.30;;;14.30;93.70;;;14.09;81.53;97182.72;5011382;28;20064;-47
2022/08/13 04:13:41;;;;;;;2.28;1.52;;;14.30;93.60;;;14.10;81.52;97184.44;4994323;28;20378;-49
2022/08/13 04:16:12;;;;;;;3.00;1.38;;;14.30;93.60;;;14.13;81.54;97188.69;5011088;28;20028;-51
2022/08/13 04:18:39;;;;;;;2.50;1.40;;;14.30;93.60;;;14.10;82.25;97178.25;5014328;28;20030;-49
2022/08/13 04:21:08;;;;;;;2.03;1.50;;;14.30;93.80;;;14.10;82.22;97183.56;5012457;28;20062;-49
2022/08/13 04:23:39;;;;;;;2.17;1.40;;;14.30;94.00;;;14.04;82.77;97178.59;5011451;28;20036;-48
2022/08/13 04:26:06;;;;;;;2.33;1.60;;;14.30;94.10;;;13.99;83.40;97176.19;5011292;28;20089;-49
2022/08/13 04:28:32;;;;;;;1.58;1.10;;;14.20;94.40;;;14.01;83.59;97171.66;5012597;28;20064;-48
2022/08/13 04:30:58;;;;;;;1.77;1.42;;;14.20;94.40;;;14.01;83.88;97174.28;5009220;28;20037;-50
2022/08/13 04:33:26;;;;;;;3.15;1.45;;;14.20;94.60;;;14.02;83.72;97175.19;5011487;28;20028;-49
2022/08/13 04:35:51;;;;;;;3.80;1.50;;;14.20;94.60;;;14.02;83.88;97183.13;5011579;28;20030;-48
2022/08/13 04:38:17;;;;;;;2.20;1.25;;;14.20;94.70;;;13.99;83.65;97175.34;5013717;28;20025;-50
2022/08/13 04:40:45;;;;;;;1.85;1.20;;;14.20;94.60;;;14.00;83.37;97184.97;5011626;28;20092;-50
2022/08/13 04:43:13;;;;;;;2.88;1.50;;;14.10;94.60;;;13.99;83.27;97180.63;5012795;28;20117;-49
2022/08/13 04:45:41;;;;;;;1.70;1.38;;;14.20;94.60;;;14.03;83.18;97176.88;5011724;28;20044;-49
2022/08/13 04:48:15;;;;;;;2.17;1.40;;;14.20;94.60;;;14.06;83.18;97182.00;4994357;28;20330;-48
2022/08/13 04:50:45;;;;;;;1.92;1.50;;;14.20;94.60;;;14.09;83.27;97188.00;5012029;28;20079;-48
2022/08/13 04:53:30;;;;;;;2.55;1.60;;;14.20;94.70;;;14.15;83.66;97184.16;5015179;28;20030;-50
2022/08/13 04:55:58;;;;;;;2.65;1.38;;;14.30;94.90;;;14.20;83.68;97189.22;5014076;28;20413;-49
2022/08/13 04:58:32;;;;;;;2.13;1.70;;;14.40;94.90;;;14.23;83.33;97192.56;5014450;28;20029;-51
2022/08/13 05:00:59;;;;;;;1.45;1.30;;;14.40;94.70;;;14.26;83.28;97194.19;5012841;28;20038;-49
2022/08/13 05:03:25;;;;;;;1.30;1.17;;;14.50;94.70;;;14.29;83.34;97201.97;5014677;28;20037;-49
2022/08/13 05:05:52;;;;;;;1.40;1.30;;;14.50;94.80;;;14.29;83.58;97201.97;5015509;28;20052;-50
2022/08/13 05:08:19;;;;;;;2.00;1.55;;;14.50;94.90;;;14.30;83.73;97199.25;5016494;28;20402;-47
2022/08/13 05:10:47;;;;;;;4.20;1.42;;;14.50;95.00;;;14.33;83.79;97204.34;5016182;28;20073;-49
2022/08/13 05:13:27;;;;;;;1.60;1.27;;;14.50;95.10;;;14.39;83.51;97203.19;5014293;28;20377;-47
2022/08/13 05:15:56;;;;;;;1.17;1.08;;;14.60;95.00;;;14.49;83.36;97195.56;5014128;28;20044;-50
2022/08/13 05:18:24;;;;;;;1.77;1.40;;;14.60;95.00;;;14.60;82.37;97195.84;5016083;28;20026;-49
2022/08/13 05:20:52;;;;;;;1.60;1.30;;;14.80;94.80;;;14.75;81.19;97196.78;5017159;28;20033;-49
2022/08/13 05:23:22;;;;;;;1.33;1.23;;;14.90;94.40;;;14.88;80.55;97202.25;5015574;28;20068;-50
2022/08/13 05:25:49;;;;;;;2.33;1.58;;;15.00;94.20;;;14.97;80.56;97192.91;5015832;28;20080;-52
2022/08/13 05:28:17;;;;;;;1.80;1.40;;;15.20;94.10;;;15.10;80.09;97201.84;5017236;28;20064;-48
2022/08/13 05:30:46;;;;;;;2.70;1.63;;;15.30;94.00;;;15.23;79.54;97205.47;5012091;28;20088;-50
2022/08/13 05:33:22;;;;;;;1.90;1.55;;;15.40;93.90;;;15.34;78.65;97199.53;5014888;28;20104;-49
2022/08/13 05:36:00;;;;;;;1.45;1.35;;;15.50;93.60;;;15.45;78.44;97213.06;5014600;28;20029;-48
2022/08/13 05:38:28;;;;;;;1.50;1.38;;;15.60;93.40;;;15.54;77.56;97210.78;4995012;28;20245;-49
2022/08/13 05:40:56;;;;;;;2.05;1.38;;;15.70;93.20;;;15.63;77.05;97213.75;5012250;28;20041;-48
2022/08/13 05:43:27;;;;;;;1.80;1.42;;;15.80;93.00;;;15.71;76.81;97213.28;5012085;28;20026;-51
2022/08/13 05:45:58;;;;;;;1.48;1.30;;;15.90;92.90;;;15.79;76.26;97220.81;4996944;28;20033;-50
2022/08/13 05:48:29;;;;;;;2.05;1.58;;;15.90;92.80;;;15.86;75.60;97218.66;5015860;28;20481;-49
2022/08/13 05:50:59;;;;;;;4.07;1.40;;;16.00;92.60;;;15.91;73.97;97214.75;5012045;28;20428;-50
2022/08/13 05:53:26;;;;;;;1.88;1.58;;;16.10;92.10;;;15.85;72.21;97193.88;5014162;28;20032;-48
2022/08/13 05:55:53;;;;;;;1.63;1.40;;;16.10;91.40;;;16.07;71.99;97211.16;5013559;28;20087;-50
2022/08/13 05:58:21;;;;;;;2.05;1.33;;;16.30;91.30;;;16.12;71.65;97207.25;5014549;28;20026;-51
2022/08/13 06:03:32;;;;;;;1.30;1.20;;;16.40;90.80;;;16.25;70.35;97204.69;5012448;28;20447;-49
2022/08/13 06:06:03;;;;;;;2.40;1.33;;;16.50;90.70;;;16.31;70.53;97206.97;5013771;28;20071;-50
2022/08/13 06:08:38;;;;;;;2.67;1.40;;;16.50;90.70;;;16.40;69.83;97205.50;4998235;28;20099;-49
2022/08/13 06:11:08;;;;;;;2.10;1.38;;;16.60;90.50;;;16.47;69.69;97195.34;5014327;28;20589;-49
2022/08/13 06:13:38;;;;;;;1.80;1.40;;;16.70;90.40;;;16.52;69.77;97198.56;5015717;28;20029;-48
2022/08/13 06:16:10;;;;;;;2.60;1.60;;;16.70;90.80;;;16.60;69.28;97204.25;5014885;28;20030;-45
2022/08/13 06:18:43;;;;;;;;;;;16.80;90.30;;;16.68;69.21;97203.75;4999621;28;20049;-48
2022/08/13 06:21:12;;;;;;;1.25;1.10;;;16.80;90.30;;;16.76;67.88;97204.09;5017046;28;19923;-46
2022/08/13 06:23:39;;;;;;;1.65;1.23;;;16.90;89.80;;;16.82;68.06;97202.88;5011595;28;20029;-48
2022/08/13 06:26:12;;;;;;;1.50;1.40;;;17.00;89.70;;;16.93;67.08;97206.53;4995214;28;20025;-48
2022/08/13 06:28:41;;;;;;;2.60;1.40;;;17.10;89.10;;;17.07;66.96;97202.97;5013822;28;20103;-49
2022/08/13 06:31:13;;;;;;;2.00;1.40;;;17.20;89.90;;;17.20;66.71;97219.00;5011515;28;20042;-48
2022/08/13 06:33:40;;;;;;;1.60;1.50;;;17.30;88.80;;;17.27;66.59;97209.63;4995046;28;20048;-49
2022/08/13 06:36:11;;;;;;;2.03;1.45;;;17.40;88.60;;;17.39;66.07;97212.44;5013714;28;20045;-49
2022/08/13 06:38:48;;;;;;;2.08;1.48;;;17.50;88.20;;;17.48;65.73;97218.00;4996093;28;20077;-47
2022/08/13 06:41:16;;;;;;;2.65;1.77;;;17.60;88.10;;;17.55;64.06;97210.47;5014083;28;20040;-48
2022/08/13 06:43:47;;;;;;;1.30;1.20;;;17.70;86.80;;;17.62;64.16;97222.41;5012033;28;20030;-48
2022/08/13 06:46:15;;;;;;;1.95;1.50;;;17.80;86.90;;;17.74;64.38;97224.22;5014354;28;20046;-49
2022/08/13 06:48:42;;;;;;;5.13;1.60;;;17.90;87.10;;;17.82;63.66;97218.38;5015153;28;20132;-50
2022/08/13 06:51:11;;;;;;;1.65;1.55;;;18.00;86.50;;;17.99;62.83;97235.06;5014627;28;20072;-48
2022/08/13 06:53:42;;;;;;;4.60;2.00;;;18.20;86.00;;;18.09;61.16;97239.63;5013526;28;20103;-47
2022/08/13 06:56:11;;;;;;;2.67;1.83;;;18.30;85.00;;;18.21;60.75;97229.06;5012913;28;20076;-48
2022/08/13 06:58:38;;;;;;;2.00;1.55;;;18.40;84.40;;;18.34;60.20;97224.56;5013498;28;20034;-47
2022/08/13 07:01:04;;;;;;;1.95;1.55;;;18.50;84.00;;;18.48;59.73;97227.09;5013603;28;20810;-49
2022/08/13 07:03:33;;;;;;;2.65;1.40;;;18.60;83.60;;;18.66;59.94;97235.59;5013988;28;20033;-47
2022/08/13 07:06:00;;;;;;;2.00;1.60;;;18.80;83.70;;;18.81;58.17;97225.66;5012817;28;20041;-47
2022/08/13 07:08:30;;;;;;;6.70;1.95;;;18.90;82.60;;;18.97;57.90;97232.53;5013108;28;20029;-51
2022/08/13 07:13:45;;;;;;;1.40;1.30;;;19.20;81.80;;;19.29;56.63;97246.19;5011741;28;20082;-46
2022/08/13 07:16:16;;;;;;;1.98;1.40;;;19.40;81.30;;;19.40;55.81;97237.38;4996043;28;20056;-47
2022/08/13 07:18:43;;;;;;;3.40;1.83;;;19.40;80.70;;;19.52;55.80;97233.75;5012246;28;20021;-50
2022/08/13 07:21:11;;;;;;;2.10;1.60;;;19.50;80.60;;;19.67;55.10;97238.88;5010538;28;20033;-48
2022/08/13 07:23:39;;;;;;;2.10;1.67;;;19.70;80.30;;;19.77;54.79;97234.59;5010501;28;20496;-47
2022/08/13 07:26:07;;;;;;;1.67;1.48;;;19.80;79.80;;;19.90;54.63;97238.03;5008968;28;20040;-47
2022/08/13 07:28:34;;;;;;;2.58;1.60;;;19.90;79.80;;;20.02;53.77;97233.53;5012847;28;20049;-47
2022/08/13 07:31:06;;;;;;;2.40;1.90;;;20.10;79.00;;;20.14;53.63;97243.28;4996391;28;20029;-48
2022/08/13 07:33:35;;;;;;;1.70;1.58;;;20.20;78.60;;;20.27;53.48;97248.53;5013775;28;20115;-51
2022/08/13 07:36:10;;;;;;;7.97;1.52;;;20.30;79.40;;;20.41;53.35;97244.75;5014024;28;20486;-48
2022/08/13 07:38:36;;;;;;;4.15;1.90;;;20.40;78.50;;;20.53;52.61;97238.44;5013046;28;20040;-48
2022/08/13 07:41:03;;;;;;;1.95;1.75;;;20.50;78.10;;;20.66;51.56;97242.84;5011112;23;20602;-46
2022/08/13 07:43:39;;;;;;;2.65;1.63;;;20.60;77.10;;;20.76;50.21;97244.66;4997298;28;20517;-51
2022/08/13 07:46:10;;;;;;;1.63;1.40;;;20.80;75.70;;;20.92;49.98;97240.72;5001243;28;20046;-49
2022/08/13 07:48:40;;;;;;;2.42;1.67;;;20.90;75.60;;;21.00;50.04;97227.53;5001446;28;20066;-49
2022/08/13 07:51:18;;;;;;;2.20;1.55;;;21.00;75.00;;;21.13;49.88;97222.03;4999679;28;20022;-47
2022/08/13 07:53:47;;;;;;;2.40;1.65;;;21.20;75.20;;;21.26;49.52;97230.75;5003065;28;20111;-49
2022/08/13 07:56:25;;;;;;;1.60;1.50;;;21.20;74.80;;;21.37;49.98;97229.84;4996055;28;20033;-49
2022/08/13 07:58:51;;;;;;;2.33;1.40;;;21.30;75.30;;;21.52;50.02;97231.28;4999377;28;20029;-47
2022/08/13 08:01:18;;;;;;;3.10;1.90;;;21.40;75.20;;;21.57;48.14;97230.91;5000174;28;20100;-48
2022/08/13 08:03:47;;;;;;;2.60;1.60;;;21.50;73.80;;;21.59;47.56;97228.06;5002634;28;20030;-49
2022/08/13 08:06:16;;;;;;;2.95;1.50;;;21.60;73.00;;;21.66;47.64;97224.75;4998832;28;20044;-48
2022/08/13 08:08:42;;;;;;;2.00;1.80;;;21.60;72.80;;;21.75;47.83;97228.50;5001120;28;20030;-50
2022/08/13 08:12:30;;;;;;;3.35;1.70;;;21.70;73.20;;;21.90;48.40;97231.69;5001166;28;20493;-49
2022/08/13 08:14:00;;;;;;;3.95;1.77;;;21.80;73.50;;;21.97;48.10;97237.41;4999107;28;20516;-47
2022/08/13 08:16:31;;;;;;;1.77;1.65;;;21.90;73.20;;;22.09;47.57;97233.63;5002502;28;20035;-47
2022/08/13 08:19:00;;;;;;;1.70;1.57;;;22.00;72.70;;;22.22;46.63;97234.28;5000588;28;20100;-45
2022/08/13 08:21:28;;;;;;;1.83;1.63;;;22.10;71.70;;;22.28;46.29;97230.25;5000789;28;20044;-50
2022/08/13 08:24:01;;;;;;;2.88;1.70;;;22.20;71.10;;;22.27;45.90;97240.13;5002708;28;20478;-49
2022/08/13 08:26:30;;;;;;;1.58;1.33;;;22.20;70.70;;;22.32;46.47;97231.66;5003905;28;20042;-48
2022/08/13 08:28:57;;;;;;;2.60;1.50;;;22.20;70.80;;;22.47;46.17;97240.22;5005628;28;20092;-46
2022/08/13 08:31:25;;;;;;;2.38;1.83;;;22.40;70.90;;;22.60;46.08;97240.00;5003595;28;20029;-48
2022/08/13 08:33:55;;;;;;;1.75;1.65;;;22.50;70.80;;;22.62;46.11;97236.16;5001421;28;20061;-47
2022/08/13 08:36:22;;;;;;;2.25;1.67;;;22.50;70.60;;;22.68;45.62;97241.03;5002940;28;20031;-47
2022/08/13 08:44:24;;;;;;;3.50;1.95;;;22.60;69.80;;;22.73;45.62;97234.38;5003366;28;20508;-48
2022/08/13 08:46:57;;;;;;;2.65;1.70;;;22.60;69.80;;;22.73;45.80;97221.78;5005710;28;20521;-49
2022/08/13 08:49:24;;;;;;;1.70;1.58;;;22.70;70.80;;;22.85;45.39;97244.03;5003139;28;20034;-48
2022/08/13 08:51:52;;;;;;;2.38;1.77;;;22.70;69.90;;;22.80;44.98;97246.28;5003304;28;20029;-48
2022/08/13 08:54:22;;;;;;;2.90;1.70;;;22.70;68.80;;;22.77;44.64;97242.00;5002677;28;20021;-46
2022/08/13 08:56:49;;;;;;;2.78;1.80;;;22.70;69.00;;;22.69;45.02;97242.69;5004972;28;20114;-45
2022/08/13 08:59:15;;;;;;;3.38;1.83;;;22.60;69.10;;;22.65;45.40;97243.97;5003531;28;20028;-49
2022/08/13 09:01:44;;;;;;;2.70;1.77;;;22.60;70.20;;;22.65;44.66;97246.66;5005045;28;20025;-48
2022/08/13 09:04:12;;;;;;;1.70;1.60;;;22.60;68.80;;;22.71;45.02;97247.09;5004331;28;20030;-46
2022/08/13 09:06:38;;;;;;;2.20;1.88;;;22.60;69.00;;;22.77;43.92;97236.63;5004623;28;20026;-50
2022/08/13 09:09:07;;;;;;;2.88;1.95;;;22.70;68.20;;;22.76;44.96;97243.03;5004561;28;20598;-47
2022/08/13 09:11:36;;;;;;;2.30;1.70;;;22.70;68.70;;;22.79;44.34;97233.81;5004641;28;20026;-46
2022/08/13 09:14:07;;;;;;;2.08;1.88;;;22.70;68.20;;;22.83;44.83;97230.72;5004694;28;20080;-47
2022/08/13 09:16:37;;;;;;;1.88;1.60;;;22.80;68.30;;;22.97;44.30;97237.56;5005499;28;20477;-46
2022/08/13 09:19:06;;;;;;;2.25;1.73;;;22.90;68.00;;;23.21;44.20;97233.66;5002363;28;20044;-46
2022/08/13 09:21:33;;;;;;;2.85;2.03;;;23.20;68.20;;;23.43;43.45;97238.75;5005021;28;20025;-47
2022/08/13 09:24:01;;;;;;;2.28;1.90;;;23.40;67.30;;;23.56;42.71;97219.66;5003640;28;20227;-47
2022/08/13 09:26:26;;;;;;;2.80;1.88;;;23.50;66.40;;;23.62;43.20;97219.06;5005271;28;20034;-49
2022/08/13 09:28:55;;;;;;;2.35;1.67;;;23.50;66.30;;;23.64;43.31;97229.72;5002936;28;20092;-46
2022/08/13 09:31:23;;;;;;;2.45;1.77;;;23.60;66.60;;;23.66;42.47;97225.03;5004690;28;20040;-48
2022/08/13 09:33:50;;;;;;;1.85;1.58;;;23.60;65.50;;;23.68;41.28;97228.41;5003541;28;20026;-46
2022/08/13 09:36:18;;;;;;;2.22;1.60;;;23.60;64.00;;;23.66;41.56;97224.19;5002080;28;20033;-47
2022/08/13 09:38:45;;;;;;;3.72;1.67;;;23.70;64.20;;;23.55;42.33;97220.63;5005514;28;20045;-47
2022/08/13 09:41:27;;;;;;;2.70;1.90;;;23.60;64.70;;;23.48;42.01;97214.13;5001680;28;20045;-48
2022/08/13 09:43:57;;;;;;;2.60;1.52;;;23.50;64.60;;;23.55;42.26;97219.81;4985790;28;20397;-49
2022/08/13 09:46:23;;;;;;;2.28;1.73;;;23.50;64.80;;;23.58;41.32;97220.38;5003371;28;20030;-46
2022/08/13 09:48:51;;;;;;;1.88;1.60;;;23.60;63.70;;;23.64;41.13;97217.09;4999629;28;20044;-47
2022/08/13 09:51:20;;;;;;;4.00;1.80;;;23.60;63.80;;;23.68;41.23;97211.44;5004923;28;20030;-48
2022/08/13 09:53:50;;;;;;;4.75;1.75;;;23.60;63.80;;;23.79;40.75;97205.88;5003007;28;20026;-46
2022/08/13 09:56:17;;;;;;;5.78;1.42;;;23.70;63.10;;;23.96;40.20;97209.72;5003712;28;20053;-49
2022/08/13 09:58:47;;;;;;;2.20;1.40;;;23.90;62.80;;;24.08;39.45;97208.53;5001453;28;20080;-49
2022/08/13 10:01:13;;;;;;;3.25;1.60;;;24.00;61.50;;;24.14;39.55;97207.13;5004341;28;20224;-46
2022/08/13 10:03:42;;;;;;;1.65;1.55;;;24.10;61.50;;;24.22;39.36;97207.22;5003137;28;20041;-47
2022/08/13 10:06:09;;;;;;;2.08;1.50;;;24.10;61.40;;;24.32;39.73;97207.19;5000504;28;20555;-46
2022/08/13 10:08:35;;;;;;;1.60;1.50;;;24.20;61.30;;;24.42;38.60;97213.38;5004358;28;20471;-49
2022/08/13 10:11:01;;;;;;;3.58;1.58;;;24.30;60.10;;;24.47;38.67;97205.69;5003742;28;20036;-47
2022/08/13 10:13:28;;;;;;;2.30;1.60;;;24.30;59.90;;;24.56;38.87;97206.69;5003215;28;20026;-47
2022/08/13 10:15:54;;;;;;;2.05;1.70;;;24.40;60.20;;;24.64;38.43;97206.81;5001323;28;20105;-47
2022/08/13 10:18:20;;;;;;;1.92;1.60;;;24.50;59.80;;;24.75;38.76;97203.91;5004418;28;20018;-48
2022/08/13 10:20:48;;;;;;;1.95;1.60;;;24.70;60.70;;;24.74;37.87;97212.13;5003753;28;20537;-49
2022/08/13 10:23:16;;;;;;;2.22;1.60;;;24.70;58.90;;;24.71;38.58;97216.00;5001965;28;20112;-47
2022/08/13 10:25:44;;;;;;;1.60;1.50;;;24.60;59.40;;;24.62;38.42;97200.72;5005330;28;20494;-49
2022/08/13 10:28:27;;;;;;;2.80;1.52;;;24.50;59.30;;;24.60;38.51;97207.25;5002429;28;20150;-47
2022/08/13 10:30:54;;;;;;;1.98;1.60;;;24.50;59.70;;;24.61;38.25;97206.25;5003202;28;20029;-47
2022/08/13 10:33:22;;;;;;;1.45;1.35;;;24.50;59.30;;;24.68;38.07;97193.88;5002924;28;20101;-50
2022/08/13 10:35:55;;;;;;;3.60;1.50;;;24.50;59.40;;;24.75;38.35;97198.50;5002083;28;20022;-47
2022/08/13 10:38:26;;;;;;;;;;;24.60;59.40;;;24.75;37.67;97176.09;5003922;28;20033;-50
2022/08/13 10:41:10;;;;;;;3.42;1.83;;;24.70;59.70;;;24.79;37.61;97187.44;5001592;28;19921;-48
2022/08/13 10:43:39;;;;;;;2.08;1.60;;;24.70;59.10;;;24.65;37.61;97194.16;5001734;28;20089;-50
2022/08/13 10:46:09;;;;;;;1.40;1.30;;;24.60;58.30;;;24.48;37.82;97187.66;4999893;28;20022;-49